Time;durP1;ratioP1;P1;durP2;ratioP2;P2;SDS_P1;SDS_P2;PMS_P1;PMS_P2;Temp;Humidity;BMP_temperature;BMP_pressure;BME280_temperature;BME280_humidity;BME280_pressure;Samples;Min_cycle;Max_cycle;Signal;HPM_P1;HPM_P2
2022/08/20 00:00:46;;;;;;;31.50;27.30;;;19.40;44.10;;;;;;5095265;28;20475;-76
2022/08/20 00:03:16;;;;;;;30.30;25.90;;;19.40;44.30;;;;;;5097294;28;20512;-76
2022/08/20 00:05:46;;;;;;;30.27;27.07;;;19.40;44.90;;;;;;5104631;28;20466;-75
2022/08/20 00:08:14;;;;;;;29.20;26.10;;;19.40;44.10;;;;;;5101466;28;20451;-75
2022/08/20 00:10:44;;;;;;;30.67;26.80;;;19.40;44.30;;;;;;5103556;28;20486;-76
2022/08/20 00:13:14;;;;;;;32.83;25.63;;;19.40;44.10;;;;;;5104165;28;20459;-75
2022/08/20 00:15:41;;;;;;;30.90;27.00;;;19.40;44.30;;;;;;5104920;28;20459;-75
2022/08/20 00:18:09;;;;;;;30.40;26.53;;;19.40;44.30;;;;;;5105280;28;20468;-76
2022/08/20 00:20:42;;;;;;;28.77;25.50;;;19.40;44.30;;;;;;5100841;28;20846;-76
2022/08/20 00:23:09;;;;;;;26.53;23.90;;;19.40;44.30;;;;;;5102224;28;20467;-76
2022/08/20 00:25:38;;;;;;;28.53;25.57;;;19.40;44.20;;;;;;5104278;28;20455;-78
2022/08/20 00:28:06;;;;;;;26.67;23.97;;;19.40;44.00;;;;;;5097486;28;20456;-77
2022/08/20 00:30:34;;;;;;;28.33;24.27;;;19.40;44.10;;;;;;5102748;28;20546;-77
2022/08/20 00:33:04;;;;;;;29.70;26.07;;;19.40;44.10;;;;;;5103852;28;20613;-77
2022/08/20 00:35:35;;;;;;;27.47;24.57;;;19.40;43.90;;;;;;5105276;28;20577;-77
2022/08/20 00:38:02;;;;;;;25.43;22.73;;;19.40;44.10;;;;;;5101164;28;20459;-77
2022/08/20 00:40:34;;;;;;;26.13;23.53;;;19.40;44.00;;;;;;5104209;28;20471;-76
2022/08/20 00:43:05;;;;;;;26.83;24.00;;;19.40;44.00;;;;;;5105029;27;20460;-76
2022/08/20 00:45:34;;;;;;;25.57;22.87;;;19.40;44.10;;;;;;5102894;28;20486;-76
2022/08/20 00:48:01;;;;;;;28.37;25.47;;;19.40;44.00;;;;;;5103274;27;20478;-76
2022/08/20 00:50:34;;;;;;;24.97;22.17;;;19.40;43.90;;;;;;5107789;28;20482;-75
2022/08/20 00:53:02;;;;;;;26.53;23.67;;;19.30;44.10;;;;;;5104213;28;20474;-76
2022/08/20 00:55:30;;;;;;;26.00;23.27;;;19.30;44.00;;;;;;5107708;28;20463;-76
2022/08/20 00:57:59;;;;;;;24.70;22.10;;;19.30;44.10;;;;;;5105826;28;20514;-76
2022/08/20 01:00:31;;;;;;;25.20;22.60;;;19.30;43.90;;;;;;5107377;28;20482;-76
2022/08/20 01:02:59;;;;;;;23.73;21.23;;;19.40;44.00;;;;;;5101081;27;20542;-76
2022/08/20 01:05:26;;;;;;;25.20;21.80;;;19.30;43.80;;;;;;5104513;28;20567;-76
2022/08/20 01:07:53;;;;;;;24.33;21.60;;;19.30;43.80;;;;;;5104460;27;20455;-76
2022/08/20 01:10:26;;;;;;;23.00;20.67;;;19.40;44.00;;;;;;5107234;27;21146;-76
2022/08/20 01:12:56;;;;;;;24.13;21.10;;;19.30;43.90;;;;;;5105576;27;20478;-76
2022/08/20 01:15:27;;;;;;;23.73;21.33;;;19.30;44.10;;;;;;5100351;28;20505;-76
2022/08/20 01:17:58;;;;;;;24.73;21.43;;;19.30;43.90;;;;;;5105054;28;20550;-76
2022/08/20 01:20:30;;;;;;;27.70;20.50;;;19.30;43.90;;;;;;5103622;28;20479;-76
2022/08/20 01:26:03;;;;;;;24.07;21.10;;;19.30;44.00;;;;;;5064243;28;20466;-76
2022/08/20 01:28:36;;;;;;;28.40;21.63;;;19.30;44.10;;;;;;5098835;27;20470;-76
2022/08/20 01:31:05;;;;;;;23.53;20.77;;;19.30;44.00;;;;;;5100886;28;21252;-76
2022/08/20 01:33:32;;;;;;;23.33;20.87;;;19.30;43.90;;;;;;5105358;28;20455;-75
2022/08/20 01:35:59;;;;;;;22.80;19.57;;;19.30;43.90;;;;;;5099265;28;20463;-75
2022/08/20 01:38:27;;;;;;;23.90;20.70;;;19.30;43.90;;;;;;5105629;27;20533;-75
2022/08/20 01:41:21;;;;;;;22.50;20.20;;;19.30;43.90;;;;;;5100980;28;20480;-75
2022/08/20 01:43:52;;;;;;;24.30;19.17;;;19.30;44.10;;;;;;5097084;28;20458;-75
2022/08/20 01:46:19;;;;;;;22.97;20.07;;;19.30;43.90;;;;;;5098966;28;20495;-75
2022/08/20 01:48:46;;;;;;;21.70;19.37;;;19.30;44.00;;;;;;5105508;27;20860;-75
2022/08/20 01:51:16;;;;;;;22.40;20.00;;;19.30;43.80;;;;;;5104696;28;20487;-75
2022/08/20 01:53:45;;;;;;;23.33;19.80;;;19.30;44.00;;;;;;5100226;28;20459;-76
2022/08/20 01:56:15;;;;;;;19.90;17.80;;;19.30;43.90;;;;;;5104539;28;20467;-75
2022/08/20 01:58:48;;;;;;;21.43;18.40;;;19.20;43.70;;;;;;5105081;27;20458;-75
2022/08/20 02:01:24;;;;;;;19.80;17.53;;;19.20;43.70;;;;;;5104617;28;20468;-76
2022/08/20 02:03:52;;;;;;;20.80;18.60;;;19.20;43.70;;;;;;5100338;27;20470;-75
2022/08/20 02:06:24;;;;;;;19.03;16.70;;;19.20;43.60;;;;;;5099950;28;20463;-76
2022/08/20 02:08:53;;;;;;;19.57;17.50;;;19.20;43.70;;;;;;5107603;27;20458;-75
2022/08/20 02:11:20;;;;;;;19.70;17.60;;;19.20;43.70;;;;;;5104592;28;21058;-75
2022/08/20 02:13:51;;;;;;;21.67;17.60;;;19.20;43.70;;;;;;5105957;28;20455;-75
2022/08/20 02:16:19;;;;;;;20.67;18.03;;;19.20;43.60;;;;;;5102555;27;20462;-75
2022/08/20 02:18:47;;;;;;;22.40;17.60;;;19.20;43.50;;;;;;5104238;28;20483;-75
2022/08/20 02:21:14;;;;;;;21.57;18.33;;;19.20;43.60;;;;;;5102857;28;20475;-75
2022/08/20 02:23:41;;;;;;;18.93;16.70;;;19.20;43.60;;;;;;5104994;27;20455;-76
2022/08/20 02:26:08;;;;;;;19.67;17.33;;;19.20;43.80;;;;;;5101665;28;20471;-75
2022/08/20 02:28:35;;;;;;;19.60;17.60;;;19.20;43.80;;;;;;5105229;28;20974;-76
2022/08/20 02:31:07;;;;;;;21.10;16.87;;;19.10;43.70;;;;;;5100554;28;20471;-75
2022/08/20 02:33:34;;;;;;;18.77;16.77;;;19.10;43.70;;;;;;5104154;28;20462;-75
2022/08/20 02:36:01;;;;;;;17.80;15.90;;;19.10;43.80;;;;;;5102522;28;20459;-76
2022/08/20 02:38:28;;;;;;;19.50;16.87;;;19.10;43.70;;;;;;5100793;28;20455;-76
2022/08/20 02:40:55;;;;;;;19.67;16.33;;;19.10;43.70;;;;;;5104772;27;20490;-76
2022/08/20 02:43:22;;;;;;;19.00;16.10;;;19.10;43.70;;;;;;5104258;28;20903;-76
2022/08/20 02:45:50;;;;;;;19.43;16.00;;;19.10;43.70;;;;;;5100182;28;20486;-75
2022/08/20 02:48:21;;;;;;;18.80;15.90;;;19.10;43.80;;;;;;5105002;27;20489;-75
2022/08/20 02:50:51;;;;;;;16.90;14.60;;;19.00;44.30;;;;;;5101767;28;20479;-75
2022/08/20 02:53:18;;;;;;;18.70;16.00;;;19.00;43.70;;;;;;5104179;28;21027;-75
2022/08/20 02:55:45;;;;;;;17.50;14.90;;;18.90;43.70;;;;;;5101357;28;20458;-75
2022/08/20 02:58:12;;;;;;;18.30;15.40;;;18.90;43.70;;;;;;5097576;28;20461;-75
2022/08/20 03:00:40;;;;;;;17.30;14.27;;;18.90;43.70;;;;;;5104504;28;20476;-75
2022/08/20 03:03:08;;;;;;;16.67;14.07;;;18.90;43.70;;;;;;5102190;28;20985;-75
2022/08/20 03:05:37;;;;;;;16.40;14.17;;;18.90;43.80;;;;;;5103233;28;20463;-75
2022/08/20 03:08:05;;;;;;;16.37;13.50;;;18.90;43.70;;;;;;5102812;28;20467;-75
2022/08/20 03:10:35;;;;;;;18.90;14.87;;;18.90;43.90;;;;;;5100062;28;20803;-76
2022/08/20 03:13:03;;;;;;;16.10;14.40;;;18.80;43.90;;;;;;5101761;28;20473;-76
2022/08/20 03:18:01;;;;;;;17.77;13.80;;;18.70;43.70;;;;;;4978345;28;20988;-66
2022/08/20 03:20:28;;;;;;;16.40;14.23;;;18.70;43.90;;;;;;4980172;28;20472;-66
2022/08/20 03:22:57;;;;;;;16.50;14.20;;;18.70;43.90;;;;;;4976329;28;20482;-65
2022/08/20 03:25:24;;;;;;;16.60;14.43;;;18.60;44.00;;;;;;4980735;28;20465;-66
2022/08/20 03:27:51;;;;;;;17.70;14.90;;;18.60;44.40;;;;;;4964500;28;20465;-66
2022/08/20 03:30:18;;;;;;;17.50;13.10;;;18.60;44.40;;;;;;4962752;28;20469;-66
2022/08/20 03:32:46;;;;;;;16.30;13.67;;;18.60;44.30;;;;;;4961723;28;20485;-65
2022/08/20 03:35:14;;;;;;;16.80;13.43;;;18.60;44.40;;;;;;4961348;28;20556;-66
2022/08/20 03:37:42;;;;;;;19.40;14.10;;;18.60;44.50;;;;;;4961289;28;20481;-66
2022/08/20 03:40:15;;;;;;;16.10;12.60;;;18.60;44.50;;;;;;4962036;28;20465;-66
2022/08/20 03:42:42;;;;;;;14.33;12.80;;;18.60;44.50;;;;;;4964477;28;20466;-64
2022/08/20 03:45:11;;;;;;;17.60;13.40;;;18.50;44.40;;;;;;4964183;28;20458;-66
2022/08/20 03:47:39;;;;;;;14.93;13.20;;;18.50;44.40;;;;;;4964255;28;20511;-65
2022/08/20 03:50:09;;;;;;;14.90;13.30;;;18.50;44.40;;;;;;4963202;28;20848;-66
2022/08/20 03:52:36;;;;;;;16.20;12.33;;;18.50;44.70;;;;;;4962664;28;20482;-65
2022/08/20 03:55:04;;;;;;;15.93;14.00;;;18.50;44.60;;;;;;4963938;28;20462;-65
2022/08/20 03:57:32;;;;;;;16.00;13.53;;;18.40;44.50;;;;;;4963851;28;20489;-66
2022/08/20 03:59:59;;;;;;;14.77;13.17;;;18.40;44.90;;;;;;4962716;28;20477;-66
2022/08/20 04:02:27;;;;;;;16.63;13.47;;;18.40;45.00;;;;;;4953127;28;21007;-65
2022/08/20 04:04:54;;;;;;;14.73;12.50;;;18.40;44.90;;;;;;4962685;28;20542;-65
2022/08/20 04:07:26;;;;;;;17.90;13.83;;;18.40;44.90;;;;;;4966921;28;20489;-64
2022/08/20 04:09:53;;;;;;;15.67;13.57;;;18.40;45.00;;;;;;4983655;28;20466;-66
2022/08/20 04:12:20;;;;;;;15.40;12.33;;;18.40;45.00;;;;;;4963465;28;20575;-66
2022/08/20 04:14:49;;;;;;;16.20;13.43;;;18.30;44.90;;;;;;4968819;28;20488;-66
2022/08/20 04:17:17;;;;;;;13.27;11.43;;;18.30;45.10;;;;;;4967525;28;20489;-65
2022/08/20 04:19:44;;;;;;;14.00;12.50;;;18.30;45.10;;;;;;4969358;28;21028;-66
2022/08/20 04:22:12;;;;;;;14.53;12.20;;;18.30;45.20;;;;;;4966223;28;20540;-65
2022/08/20 04:24:39;;;;;;;15.20;12.70;;;18.30;45.10;;;;;;4966916;28;20477;-65
2022/08/20 04:27:07;;;;;;;15.23;12.17;;;18.30;44.90;;;;;;4968056;28;20485;-66
2022/08/20 04:29:35;;;;;;;14.77;11.90;;;18.20;44.90;;;;;;4967963;28;20876;-65
2022/08/20 04:32:04;;;;;;;15.23;12.40;;;18.30;45.00;;;;;;4964426;28;20477;-66
2022/08/20 04:34:31;;;;;;;14.13;12.40;;;18.20;44.90;;;;;;4966374;28;20465;-65
2022/08/20 04:36:58;;;;;;;17.30;13.47;;;18.20;44.90;;;;;;4965586;28;20488;-65
2022/08/20 04:39:25;;;;;;;17.67;12.67;;;18.20;45.20;;;;;;4966927;28;20465;-65
2022/08/20 04:41:51;;;;;;;14.70;12.20;;;18.20;45.10;;;;;;4965118;28;20460;-65
2022/08/20 04:44:20;;;;;;;14.40;12.47;;;18.10;44.90;;;;;;4966818;28;20469;-65
2022/08/20 04:46:47;;;;;;;14.70;12.87;;;18.10;45.00;;;;;;4963305;28;20517;-65
2022/08/20 04:49:15;;;;;;;16.80;13.47;;;18.10;44.90;;;;;;4965615;28;20474;-65
2022/08/20 04:51:42;;;;;;;13.90;11.70;;;18.10;45.80;;;;;;4966181;28;20924;-65
2022/08/20 04:54:13;;;;;;;15.63;12.77;;;18.10;45.00;;;;;;4961413;28;20494;-66
2022/08/20 04:56:39;;;;;;;16.23;12.80;;;18.10;45.20;;;;;;4967011;28;20568;-66
2022/08/20 04:59:07;;;;;;;12.97;11.43;;;18.10;44.80;;;;;;4966562;28;20461;-65
2022/08/20 05:01:34;;;;;;;13.60;11.47;;;18.10;44.90;;;;;;4961287;28;20511;-65
2022/08/20 05:04:00;;;;;;;14.30;12.40;;;18.20;44.90;;;;;;4964707;28;20949;-65
2022/08/20 05:06:31;;;;;;;14.00;11.70;;;18.20;44.80;;;;;;4966161;28;21307;-64
2022/08/20 05:08:59;;;;;;;15.17;12.00;;;18.20;44.70;;;;;;4978225;28;20453;-65
2022/08/20 05:11:27;;;;;;;14.00;11.50;;;18.30;44.60;;;;;;4965609;28;20466;-65
2022/08/20 05:13:54;;;;;;;15.40;12.27;;;18.30;44.50;;;;;;4966844;28;20489;-65
2022/08/20 05:16:22;;;;;;;15.00;11.13;;;18.30;44.40;;;;;;4961323;28;20849;-65
2022/08/20 05:18:50;;;;;;;14.80;12.13;;;18.40;44.20;;;;;;4967355;28;20462;-65
2022/08/20 05:21:17;;;;;;;16.57;12.07;;;18.40;44.10;;;;;;4964363;28;20461;-65
2022/08/20 05:23:46;;;;;;;14.20;12.10;;;18.50;43.90;;;;;;4966215;28;20454;-65
2022/08/20 05:26:14;;;;;;;15.13;10.80;;;18.60;43.80;;;;;;4965616;28;20478;-65
2022/08/20 05:28:41;;;;;;;11.70;10.30;;;18.60;43.70;;;;;;4966309;28;20628;-65
2022/08/20 05:31:09;;;;;;;12.97;11.03;;;18.70;43.10;;;;;;4962739;28;20474;-65
2022/08/20 05:33:37;;;;;;;15.60;11.63;;;18.80;43.20;;;;;;4965180;28;20570;-65
2022/08/20 05:36:06;;;;;;;13.50;11.17;;;18.90;42.50;;;;;;4965143;28;20989;-65
2022/08/20 05:38:34;;;;;;;13.47;11.37;;;19.00;42.30;;;;;;4966631;28;20470;-66
2022/08/20 05:41:04;;;;;;;11.93;10.47;;;19.10;41.60;;;;;;4964503;28;20465;-65
2022/08/20 05:43:32;;;;;;;13.97;10.47;;;19.20;41.10;;;;;;4963221;28;20470;-66
2022/08/20 05:46:00;;;;;;;12.27;10.40;;;19.30;40.80;;;;;;4959705;28;20481;-65
2022/08/20 05:48:26;;;;;;;14.60;9.20;;;19.40;40.30;;;;;;4965478;28;20477;-65
2022/08/20 05:50:54;;;;;;;11.87;10.50;;;19.60;40.00;;;;;;4965928;28;20474;-65
2022/08/20 05:53:23;;;;;;;10.77;9.57;;;19.60;40.00;;;;;;4963491;28;20575;-65
2022/08/20 05:55:49;;;;;;;11.97;10.07;;;19.70;39.50;;;;;;4965374;28;20485;-65
2022/08/20 05:58:21;;;;;;;9.73;7.93;;;19.90;39.20;;;;;;4964979;28;20462;-65
2022/08/20 06:00:48;;;;;;;10.53;8.13;;;20.00;38.80;;;;;;4961990;28;20876;-65
2022/08/20 06:05:59;;;;;;;11.00;7.80;;;21.00;37.40;;;;;;4961526;28;20591;-66
2022/08/20 06:08:26;;;;;;;10.43;7.00;;;21.80;34.70;;;;;;4964692;28;20457;-66
2022/08/20 06:10:53;;;;;;;8.87;7.60;;;22.00;33.00;;;;;;4963869;28;20459;-66
2022/08/20 06:13:21;;;;;;;8.87;7.17;;;22.20;32.40;;;;;;4961472;28;20485;-66
2022/08/20 06:15:48;;;;;;;8.90;7.00;;;22.40;32.00;;;;;;4960490;28;20865;-65
2022/08/20 06:18:15;;;;;;;8.73;6.53;;;22.50;31.30;;;;;;4963499;28;20454;-66
2022/08/20 06:20:42;;;;;;;8.70;6.33;;;22.50;30.60;;;;;;4964038;28;20839;-65
2022/08/20 06:23:08;;;;;;;9.07;6.97;;;22.50;30.60;;;;;;4963349;28;20465;-66
2022/08/20 06:25:35;;;;;;;8.73;6.60;;;22.40;30.60;;;;;;4965960;28;20461;-65
2022/08/20 06:28:03;;;;;;;9.67;6.97;;;22.40;30.30;;;;;;4962443;28;20461;-65
2022/08/20 06:30:32;;;;;;;12.50;8.20;;;22.30;30.50;;;;;;4962136;28;20458;-66
2022/08/20 06:32:59;;;;;;;9.33;7.53;;;22.30;30.70;;;;;;4965504;28;20492;-65
2022/08/20 06:35:26;;;;;;;8.27;6.77;;;22.30;30.40;;;;;;4964930;28;21165;-65
2022/08/20 06:37:56;;;;;;;9.70;7.17;;;22.50;30.50;;;;;;4964695;28;20999;-65
2022/08/20 06:40:27;;;;;;;10.27;7.47;;;22.60;30.20;;;;;;4962674;28;20505;-65
2022/08/20 06:42:55;;;;;;;14.03;6.30;;;22.70;30.10;;;;;;4965202;28;20468;-66
2022/08/20 06:45:24;;;;;;;8.60;6.37;;;22.80;29.60;;;;;;4962201;28;20466;-66
2022/08/20 06:47:54;;;;;;;8.27;6.90;;;22.70;29.30;;;;;;4960523;28;20461;-66
2022/08/20 06:50:23;;;;;;;9.43;6.30;;;22.60;29.40;;;;;;4961681;28;20477;-65
2022/08/20 06:52:50;;;;;;;8.40;7.20;;;22.40;29.60;;;;;;4962919;28;20478;-66
2022/08/20 06:55:17;;;;;;;9.33;7.47;;;22.20;30.00;;;;;;4962724;28;20828;-66
2022/08/20 06:57:44;;;;;;;9.33;7.60;;;22.10;30.50;;;;;;4962158;28;21023;-69
2022/08/20 07:00:14;;;;;;;9.10;7.20;;;21.90;30.60;;;;;;4960293;28;20472;-70
2022/08/20 07:02:41;;;;;;;9.60;7.40;;;21.80;31.20;;;;;;5043684;28;20499;-70
2022/08/20 07:05:10;;;;;;;9.47;7.37;;;21.70;31.60;;;;;;5042641;28;20488;-69
2022/08/20 07:07:37;;;;;;;9.17;7.30;;;21.70;31.70;;;;;;5042724;28;20535;-68
2022/08/20 07:10:05;;;;;;;10.30;7.93;;;21.70;32.00;;;;;;5042732;28;20470;-69
2022/08/20 07:12:33;;;;;;;10.67;8.10;;;21.70;32.00;;;;;;5043408;28;20474;-68
2022/08/20 07:15:00;;;;;;;12.77;8.57;;;21.80;32.00;;;;;;5046483;28;20462;-68
2022/08/20 07:17:27;;;;;;;10.00;8.33;;;21.90;31.80;;;;;;5034335;28;20492;-68
2022/08/20 07:19:54;;;;;;;10.37;6.93;;;22.00;31.90;;;;;;5043539;28;20462;-68
2022/08/20 07:22:23;;;;;;;7.93;6.37;;;22.20;31.70;;;;;;5041209;28;20458;-70
2022/08/20 07:24:50;;;;;;;9.37;7.17;;;22.50;31.30;;;;;;5045727;28;20460;-70
2022/08/20 07:27:21;;;;;;;9.80;7.80;;;22.60;30.60;;;;;;5043746;28;20594;-69
2022/08/20 07:32:35;;;;;;;9.33;7.03;;;22.40;29.90;;;;;;4942608;28;20485;-77
2022/08/20 07:35:04;;;;;;;8.43;6.90;;;22.30;30.30;;;;;;4941987;28;20471;-79
2022/08/20 07:37:37;;;;;;;9.50;6.90;;;22.50;30.50;;;;;;4944714;28;20990;-79
2022/08/20 07:40:06;;;;;;;8.23;7.13;;;22.70;30.10;;;;;;4941749;28;20463;-75
2022/08/20 07:42:33;;;;;;;8.50;7.30;;;22.70;29.80;;;;;;4945266;28;20471;-77
2022/08/20 07:44:59;;;;;;;12.03;7.20;;;22.80;29.30;;;;;;4943672;28;20462;-74
2022/08/20 07:47:26;;;;;;;10.80;6.70;;;23.00;29.30;;;;;;4945233;28;21684;-74
2022/08/20 07:49:53;;;;;;;8.27;6.73;;;23.40;29.10;;;;;;4943852;28;20463;-74
2022/08/20 07:52:20;;;;;;;7.63;6.13;;;24.40;27.20;;;;;;4944659;28;20474;-73
2022/08/20 07:54:48;;;;;;;10.30;6.03;;;25.20;24.80;;;;;;4944736;28;20518;-73
2022/08/20 07:57:16;;;;;;;9.43;6.40;;;26.00;22.60;;;;;;4941593;28;21189;-73
2022/08/20 07:59:45;;;;;;;7.67;5.57;;;27.20;19.40;;;;;;4942027;28;20470;-74
2022/08/20 08:02:12;;;;;;;9.10;6.20;;;28.30;17.10;;;;;;4943155;28;20889;-74
2022/08/20 08:04:39;;;;;;;8.00;5.23;;;28.90;15.20;;;;;;4940497;28;20462;-74
2022/08/20 08:07:06;;;;;;;7.63;5.57;;;29.40;14.30;;;;;;4943094;28;20477;-74
2022/08/20 08:09:33;;;;;;;6.60;5.23;;;29.30;13.50;;;;;;4945866;28;20467;-74
2022/08/20 08:12:03;;;;;;;7.97;6.40;;;28.80;14.00;;;;;;4945835;28;20455;-74
2022/08/20 08:14:33;;;;;;;7.33;5.47;;;28.30;15.20;;;;;;4959523;28;20494;-74
2022/08/20 08:17:04;;;;;;;7.10;5.60;;;27.90;15.90;;;;;;4961248;28;20508;-74
2022/08/20 08:19:37;;;;;;;6.37;4.97;;;27.50;17.40;;;;;;4945824;28;20463;-74
2022/08/20 08:22:06;;;;;;;7.57;5.43;;;27.10;17.80;;;;;;4946566;28;20467;-74
2022/08/20 08:24:33;;;;;;;7.10;5.60;;;26.80;18.00;;;;;;4946780;28;20463;-69
2022/08/20 08:27:02;;;;;;;7.83;5.90;;;26.40;18.80;;;;;;4943049;28;20495;-69
2022/08/20 08:29:29;;;;;;;9.60;5.63;;;26.10;19.50;;;;;;4975048;28;20564;-72
2022/08/20 08:31:56;;;;;;;7.40;5.87;;;25.80;19.70;;;;;;4959546;28;20484;-68
2022/08/20 08:34:24;;;;;;;7.90;6.20;;;25.40;20.70;;;;;;4972478;28;20485;-71
2022/08/20 08:36:51;;;;;;;7.87;5.30;;;25.30;22.00;;;;;;4961546;28;20485;-67
2022/08/20 08:39:19;;;;;;;8.10;5.80;;;24.90;22.70;;;;;;4968260;28;20462;-69
2022/08/20 08:41:49;;;;;;;7.73;5.03;;;24.80;23.20;;;;;;4968783;28;20464;-80
2022/08/20 08:44:22;;;;;;;7.97;5.50;;;24.50;23.90;;;;;;4971062;28;20960;-76
2022/08/20 08:46:51;;;;;;;9.33;5.77;;;24.30;24.70;;;;;;4968829;28;20871;-77
2022/08/20 08:49:21;;;;;;;8.57;6.23;;;24.10;25.20;;;;;;4967144;28;20462;-73
2022/08/20 08:51:51;;;;;;;9.30;6.43;;;24.00;25.80;;;;;;4969716;28;20464;-71
2022/08/20 08:54:21;;;;;;;7.13;5.43;;;24.00;26.20;;;;;;4968808;28;20477;-73
2022/08/20 08:56:48;;;;;;;7.30;5.47;;;24.10;26.50;;;;;;4974142;28;20530;-75
2022/08/20 08:59:15;;;;;;;7.87;5.30;;;24.40;26.50;;;;;;4967885;28;20465;-84
2022/08/20 09:01:46;;;;;;;7.77;5.63;;;25.20;25.30;;;;;;4971149;28;20481;-69
2022/08/20 09:04:14;;;;;;;7.93;4.83;;;26.20;23.10;;;;;;4966743;28;21042;-70
2022/08/20 09:06:42;;;;;;;6.27;4.67;;;28.00;19.50;;;;;;4963481;28;20562;-70
2022/08/20 09:09:17;;;;;;;7.30;4.33;;;28.90;15.90;;;;;;4964963;28;20500;-75
2022/08/20 09:11:48;;;;;;;7.70;4.70;;;29.80;14.10;;;;;;4972578;28;20996;-73
2022/08/20 09:14:14;;;;;;;8.40;4.40;;;31.60;12.60;;;;;;4966402;28;20837;-70
2022/08/20 09:19:17;;;;;;;7.90;4.20;;;37.50;3.60;;;;;;5074069;28;20500;-73
2022/08/20 09:21:44;;;;;;;8.00;3.83;;;39.90;1.10;;;;;;5082508;28;20467;-73
2022/08/20 09:24:10;;;;;;;5.00;2.77;;;40.60;1.00;;;;;;5079302;28;20453;-72
2022/08/20 09:26:37;;;;;;;5.37;4.00;;;39.30;1.00;;;;;;5081882;28;20495;-73
2022/08/20 09:29:04;;;;;;;6.40;4.10;;;37.70;1.00;;;;;;5065235;28;20486;-72
2022/08/20 09:31:31;;;;;;;6.10;3.60;;;36.40;1.00;;;;;;5062941;28;20476;-72
2022/08/20 09:33:57;;;;;;;5.63;3.77;;;35.40;2.30;;;;;;5068817;28;20890;-72
2022/08/20 09:36:26;;;;;;;6.10;4.17;;;34.60;3.40;;;;;;5059703;28;20465;-72
2022/08/20 09:38:53;;;;;;;6.83;3.80;;;33.90;4.50;;;;;;5069421;28;20526;-71
2022/08/20 09:41:20;;;;;;;6.40;4.57;;;33.20;6.10;;;;;;5060731;28;20569;-71
2022/08/20 09:43:46;;;;;;;5.67;3.97;;;32.50;7.10;;;;;;5058364;28;20464;-72
2022/08/20 09:46:13;;;;;;;5.63;4.10;;;31.90;8.10;;;;;;5057447;28;20479;-72
2022/08/20 09:48:40;;;;;;;5.77;3.23;;;31.40;9.40;;;;;;5066551;28;20477;-71
2022/08/20 09:51:07;;;;;;;5.80;3.77;;;32.20;10.20;;;;;;5067375;28;20472;-70
2022/08/20 09:53:35;;;;;;;5.50;3.70;;;33.20;8.40;;;;;;5065409;28;20479;-71
2022/08/20 09:56:03;;;;;;;6.03;3.50;;;33.70;6.60;;;;;;5065515;28;20484;-71
2022/08/20 09:58:36;;;;;;;5.80;3.53;;;33.70;5.90;;;;;;5063808;28;20997;-70
2022/08/20 10:01:07;;;;;;;5.10;3.00;;;33.90;6.00;;;;;;5062318;28;21057;-71
2022/08/20 10:03:34;;;;;;;4.67;3.10;;;34.10;5.30;;;;;;5063742;28;20457;-71
2022/08/20 10:06:01;;;;;;;4.57;2.60;;;34.30;4.70;;;;;;5065146;28;20461;-71
2022/08/20 10:08:28;;;;;;;4.13;2.40;;;34.70;4.10;;;;;;5064774;28;20489;-71
2022/08/20 10:10:56;;;;;;;6.03;2.37;;;35.00;4.50;;;;;;5063627;28;20536;-72
2022/08/20 10:13:24;;;;;;;6.47;2.43;;;35.20;4.00;;;;;;5068709;28;20461;-72
2022/08/20 10:15:50;;;;;;;4.40;2.40;;;35.10;3.10;;;;;;5065894;28;20461;-71
2022/08/20 10:18:17;;;;;;;3.93;2.30;;;34.90;3.30;;;;;;5067454;28;20571;-72
2022/08/20 10:20:44;;;;;;;5.17;2.70;;;34.30;3.30;;;;;;5062325;28;20475;-72
2022/08/20 10:23:10;;;;;;;4.10;2.20;;;33.90;4.00;;;;;;5063408;28;20461;-76
2022/08/20 10:25:38;;;;;;;5.17;2.70;;;33.50;4.50;;;;;;5064495;28;20461;-72
2022/08/20 10:28:06;;;;;;;4.50;2.60;;;33.10;5.50;;;;;;5066560;28;20482;-72
2022/08/20 10:30:33;;;;;;;5.53;2.73;;;32.70;5.60;;;;;;5066048;28;20473;-72
2022/08/20 10:33:00;;;;;;;5.07;2.93;;;32.20;6.70;;;;;;5062400;28;20465;-72
2022/08/20 10:35:27;;;;;;;5.20;2.93;;;32.20;7.20;;;;;;5060131;28;20481;-72
2022/08/20 10:37:54;;;;;;;4.73;2.57;;;32.00;6.70;;;;;;5062742;28;20473;-73
2022/08/20 10:40:21;;;;;;;4.07;2.17;;;32.00;7.70;;;;;;5064067;28;20568;-73
2022/08/20 10:42:48;;;;;;;5.87;2.17;;;32.20;7.70;;;;;;5064899;28;20858;-73
2022/08/20 10:45:16;;;;;;;4.50;2.20;;;32.60;6.30;;;;;;5068008;28;20461;-73
2022/08/20 10:47:44;;;;;;;4.50;2.33;;;32.50;5.30;;;;;;5062046;28;20473;-73
2022/08/20 10:50:13;;;;;;;4.43;2.30;;;32.00;5.80;;;;;;5060981;28;20464;-73
2022/08/20 10:52:40;;;;;;;5.30;2.00;;;31.30;6.20;;;;;;5066948;28;20469;-73
2022/08/20 10:55:08;;;;;;;9.90;2.20;;;30.80;7.40;;;;;;5068111;28;21024;-73
2022/08/20 10:57:35;;;;;;;4.20;2.40;;;30.20;8.70;;;;;;5065323;28;21015;-73
2022/08/20 11:00:02;;;;;;;4.33;2.40;;;29.60;9.60;;;;;;5067079;28;21015;-73
2022/08/20 11:02:30;;;;;;;4.80;2.90;;;29.10;10.50;;;;;;5066188;28;20475;-73
2022/08/20 11:04:57;;;;;;;4.80;2.80;;;28.60;11.80;;;;;;5066107;28;20467;-73
2022/08/20 11:07:27;;;;;;;4.40;1.80;;;28.20;12.90;;;;;;5065483;28;20481;-73
2022/08/20 11:09:55;;;;;;;3.60;1.70;;;27.80;12.60;;;;;;5061340;28;20651;-73
2022/08/20 11:12:22;;;;;;;4.77;2.27;;;27.30;13.10;;;;;;5065176;28;20460;-73
2022/08/20 11:14:51;;;;;;;5.33;2.70;;;26.90;13.80;;;;;;5061236;28;20480;-73
2022/08/20 11:17:21;;;;;;;6.63;3.20;;;26.50;15.40;;;;;;5065974;28;20539;-73
2022/08/20 11:19:50;;;;;;;4.80;2.90;;;26.20;17.10;;;;;;5057493;28;20460;-73
2022/08/20 11:22:18;;;;;;;6.10;3.60;;;25.90;17.60;;;;;;5062828;28;20468;-73
2022/08/20 11:24:45;;;;;;;6.30;3.00;;;25.70;18.50;;;;;;5053954;28;20453;-73
2022/08/20 11:27:17;;;;;;;6.23;2.60;;;25.60;18.60;;;;;;5063160;28;20488;-73
2022/08/20 11:29:44;;;;;;;4.57;2.50;;;25.50;19.20;;;;;;5063202;28;20971;-73
2022/08/20 11:32:11;;;;;;;5.17;2.93;;;25.40;19.30;;;;;;5001540;22;20485;-73
2022/08/20 11:34:37;;;;;;;4.67;2.30;;;25.30;19.70;;;;;;4984296;28;20538;-73
2022/08/20 11:37:06;;;;;;;5.47;2.47;;;25.30;19.60;;;;;;4984184;28;20465;-73
2022/08/20 11:39:33;;;;;;;5.80;2.60;;;25.50;19.50;;;;;;4996195;28;20464;-73
2022/08/20 11:42:00;;;;;;;4.83;2.63;;;25.70;19.40;;;;;;4986500;28;20519;-73
2022/08/20 11:44:27;;;;;;;6.10;2.87;;;26.00;19.10;;;;;;4984019;28;20461;-73
2022/08/20 11:46:58;;;;;;;4.77;2.23;;;26.10;18.70;;;;;;4988400;28;21187;-73
2022/08/20 11:49:25;;;;;;;9.30;2.70;;;26.20;18.30;;;;;;4982472;28;20519;-74
2022/08/20 11:51:52;;;;;;;6.43;3.00;;;26.30;17.70;;;;;;4981456;28;20855;-73
2022/08/20 11:54:20;;;;;;;7.67;2.70;;;26.20;18.00;;;;;;4997393;23;20498;-67
2022/08/20 11:56:48;;;;;;;5.30;2.57;;;26.20;18.50;;;;;;4982170;28;20469;-68
2022/08/20 11:59:15;;;;;;;5.60;2.33;;;26.10;18.90;;;;;;4983894;28;20485;-68
2022/08/20 12:01:42;;;;;;;4.57;2.40;;;26.10;19.10;;;;;;4979589;28;20473;-67
2022/08/20 12:04:09;;;;;;;4.40;2.10;;;26.00;19.30;;;;;;4973331;28;20485;-68
2022/08/20 12:06:36;;;;;;;3.73;1.63;;;25.80;17.90;;;;;;4962533;28;20475;-69
2022/08/20 12:09:03;;;;;;;4.57;2.17;;;25.60;17.90;;;;;;4959465;28;20470;-68
2022/08/20 12:11:31;;;;;;;12.67;2.40;;;25.40;18.50;;;;;;4958638;28;20482;-68
2022/08/20 12:13:58;;;;;;;10.83;3.77;;;25.10;19.70;;;;;;4953464;28;20486;-69
2022/08/20 12:16:25;;;;;;;12.17;3.60;;;24.80;21.10;;;;;;4973189;22;20493;-59
2022/08/20 12:18:52;;;;;;;9.63;3.80;;;24.60;22.30;;;;;;4979542;28;20949;-60
2022/08/20 12:21:19;;;;;;;7.80;3.67;;;24.30;23.60;;;;;;4979337;28;20468;-58
2022/08/20 12:23:46;;;;;;;13.13;3.93;;;24.00;24.20;;;;;;4977268;28;22509;-62
2022/08/20 12:26:15;;;;;;;6.13;2.97;;;23.80;25.20;;;;;;4980771;28;21072;-61
2022/08/20 12:28:43;;;;;;;5.87;3.00;;;23.60;25.90;;;;;;4979612;28;20467;-59
2022/08/20 12:31:11;;;;;;;7.20;3.67;;;23.50;26.70;;;;;;4980157;28;20560;-59
2022/08/20 12:33:37;;;;;;;6.23;3.20;;;23.30;27.80;;;;;;4984481;28;20492;-59
2022/08/20 12:36:05;;;;;;;6.07;2.57;;;23.10;28.30;;;;;;4980195;28;20474;-58
2022/08/20 12:38:32;;;;;;;9.03;3.57;;;23.00;28.30;;;;;;4987519;28;20475;-59
2022/08/20 12:40:59;;;;;;;6.10;2.87;;;22.90;29.50;;;;;;4981100;28;20476;-59
2022/08/20 12:43:26;;;;;;;7.13;3.33;;;22.80;28.80;;;;;;4980170;28;20491;-59
2022/08/20 12:45:55;;;;;;;4.80;2.23;;;22.80;29.30;;;;;;4981773;28;20941;-58
2022/08/20 12:48:21;;;;;;;5.40;1.50;;;22.60;28.10;;;;;;4980618;28;20822;-59
2022/08/20 12:50:51;;;;;;;4.33;1.17;;;22.40;27.20;;;;;;4982358;28;20514;-60
2022/08/20 12:53:18;;;;;;;4.83;1.40;;;22.20;27.50;;;;;;4985711;28;20889;-60
2022/08/20 12:55:46;;;;;;;5.30;1.40;;;21.90;28.70;;;;;;4982007;28;20476;-58